createdAt,value
2018-08-12T00:00:28.061Z,14.60
2018-08-12T00:02:57.673Z,14.60
2018-08-12T00:05:26.228Z,14.60
2018-08-12T00:07:55.101Z,14.50
2018-08-12T00:10:24.483Z,14.50
2018-08-12T00:12:52.991Z,14.40
2018-08-12T00:15:22.423Z,14.40
2018-08-12T00:17:50.839Z,14.40
2018-08-12T00:20:21.163Z,14.30
2018-08-12T00:22:49.718Z,14.40
2018-08-12T00:25:20.665Z,14.40
2018-08-12T00:27:49.143Z,14.30
2018-08-12T00:30:18.509Z,14.20
2018-08-12T00:32:47.036Z,14.20
2018-08-12T00:35:16.744Z,14.10
2018-08-12T00:37:45.447Z,14.20
2018-08-12T00:40:16.207Z,14.20
2018-08-12T00:42:45.367Z,14.20
2018-08-12T00:45:16.227Z,14.30
2018-08-12T00:47:45.135Z,14.20
2018-08-12T00:50:14.656Z,14.20
2018-08-12T00:52:43.183Z,14.10
2018-08-12T00:55:13.771Z,14.10
2018-08-12T00:57:43.262Z,14.10
2018-08-12T01:00:15.462Z,14.20
2018-08-12T01:02:43.970Z,14.20
2018-08-12T01:05:14.962Z,14.20
2018-08-12T01:07:44.466Z,14.10
2018-08-12T01:10:13.668Z,14.10
2018-08-12T01:12:42.211Z,14.10
2018-08-12T01:15:13.098Z,14.10
2018-08-12T01:17:41.779Z,14.10
2018-08-12T01:20:11.771Z,14.10
2018-08-12T01:22:40.871Z,14.10
2018-08-12T01:25:15.854Z,14.00
2018-08-12T01:27:44.618Z,14.00
2018-08-12T01:30:15.395Z,14.00
2018-08-12T01:32:44.591Z,14.00
2018-08-12T01:35:13.787Z,14.00
2018-08-12T01:37:43.128Z,14.00
2018-08-12T01:40:13.256Z,14.00
2018-08-12T01:42:42.296Z,14.00
2018-08-12T01:45:12.509Z,14.00
2018-08-12T01:47:41.000Z,14.00
2018-08-12T01:50:10.694Z,14.00
2018-08-12T01:52:39.195Z,13.90
2018-08-12T01:55:07.667Z,13.90
2018-08-12T01:57:36.499Z,13.80
2018-08-12T02:00:06.976Z,13.80
2018-08-12T02:02:35.424Z,13.80
2018-08-12T02:05:04.637Z,13.80
2018-08-12T02:07:33.042Z,13.70
2018-08-12T02:10:01.519Z,13.60
2018-08-12T02:12:29.931Z,13.60
2018-08-12T02:14:58.375Z,13.60
2018-08-12T02:17:26.791Z,13.60
2018-08-12T02:19:55.219Z,13.60
2018-08-12T02:22:23.674Z,13.60
2018-08-12T02:24:52.121Z,13.50
2018-08-12T02:27:20.838Z,13.50
2018-08-12T02:29:49.266Z,13.40
2018-08-12T02:32:17.730Z,13.40
2018-08-12T02:34:46.231Z,13.40
2018-08-12T02:37:15.435Z,13.40
2018-08-12T02:39:43.879Z,13.30
2018-08-12T02:42:12.302Z,13.30
2018-08-12T02:44:40.743Z,13.30
2018-08-12T02:47:09.198Z,13.30
2018-08-12T02:49:37.619Z,13.20
2018-08-12T02:52:06.140Z,13.20
2018-08-12T02:54:34.578Z,13.20
2018-08-12T02:57:03.019Z,13.20
2018-08-12T02:59:31.446Z,13.20
2018-08-12T03:01:59.855Z,13.20
2018-08-12T03:04:28.304Z,13.20
2018-08-12T03:06:56.760Z,13.20
2018-08-12T03:09:25.251Z,13.10
2018-08-12T03:11:53.643Z,13.10
2018-08-12T03:14:22.095Z,13.10
2018-08-12T03:16:50.514Z,13.10
2018-08-12T03:19:18.959Z,13.10
2018-08-12T03:21:47.371Z,13.10
2018-08-12T03:24:15.787Z,13.20
2018-08-12T03:26:44.215Z,13.20
2018-08-12T03:29:12.690Z,13.20
2018-08-12T03:31:41.124Z,13.30
2018-08-12T03:34:09.615Z,13.30
2018-08-12T03:36:38.048Z,13.30
2018-08-12T03:39:09.111Z,13.30
2018-08-12T03:41:37.527Z,13.30
2018-08-12T03:44:06.155Z,13.30
2018-08-12T03:46:34.535Z,13.30
2018-08-12T03:49:02.927Z,13.20
2018-08-12T03:51:31.319Z,13.20
2018-08-12T03:53:59.698Z,13.30
2018-08-12T03:56:28.083Z,13.20
2018-08-12T03:58:56.423Z,13.20
2018-08-12T04:01:24.782Z,13.20
2018-08-12T04:03:53.135Z,13.20
2018-08-12T04:06:21.501Z,13.10
2018-08-12T04:08:49.850Z,13.10
2018-08-12T04:11:18.238Z,13.10
2018-08-12T04:13:46.585Z,13.10
2018-08-12T04:16:14.936Z,13.10
2018-08-12T04:18:43.307Z,13.10
2018-08-12T04:21:11.679Z,13.10
2018-08-12T04:23:40.174Z,13.20
2018-08-12T04:26:08.539Z,13.20
2018-08-12T04:28:36.899Z,13.10
2018-08-12T04:31:05.460Z,13.10
2018-08-12T04:33:33.810Z,13.10
2018-08-12T04:36:02.176Z,13.10
2018-08-12T04:38:30.511Z,13.00
2018-08-12T04:40:58.895Z,13.10
2018-08-12T04:43:27.284Z,13.10
2018-08-12T04:45:55.820Z,13.20
2018-08-12T04:48:24.234Z,13.20
2018-08-12T04:50:52.687Z,13.20
2018-08-12T04:53:21.108Z,13.30
2018-08-12T04:55:49.598Z,13.30
2018-08-12T04:58:18.011Z,13.40
2018-08-12T05:00:46.704Z,13.40
2018-08-12T05:03:15.148Z,13.30
2018-08-12T05:05:43.599Z,13.40
2018-08-12T05:08:12.035Z,13.40
2018-08-12T05:10:40.491Z,13.50
2018-08-12T05:13:08.939Z,13.60
2018-08-12T05:15:37.380Z,13.70
2018-08-12T05:18:05.790Z,13.70
2018-08-12T05:20:34.271Z,13.80
2018-08-12T05:23:02.675Z,13.90
2018-08-12T05:25:31.099Z,13.90
2018-08-12T05:27:59.528Z,14.00
2018-08-12T05:30:28.003Z,14.10
2018-08-12T05:32:56.482Z,14.20
2018-08-12T05:35:24.983Z,14.30
2018-08-12T05:37:53.419Z,14.30
2018-08-12T05:40:21.847Z,14.40
2018-08-12T05:42:50.312Z,14.40
2018-08-12T05:45:18.743Z,14.60
2018-08-12T05:47:47.175Z,14.70
2018-08-12T05:50:15.654Z,14.70
2018-08-12T05:52:44.091Z,14.80
2018-08-12T05:55:12.503Z,14.90
2018-08-12T05:57:41.003Z,14.90
2018-08-12T06:00:11.882Z,15.00
2018-08-12T06:02:40.337Z,15.00
2018-08-12T06:05:09.070Z,15.10
2018-08-12T06:07:37.699Z,15.20
2018-08-12T06:10:06.711Z,15.40
2018-08-12T06:12:35.531Z,15.50
2018-08-12T06:15:05.056Z,15.80
2018-08-12T06:17:33.556Z,16.00
2018-08-12T06:20:01.968Z,16.20
2018-08-12T06:22:30.441Z,16.30
2018-08-12T06:24:58.862Z,16.30
2018-08-12T06:27:27.295Z,16.30
2018-08-12T06:29:55.743Z,16.30
2018-08-12T06:32:24.170Z,16.40
2018-08-12T06:34:52.596Z,16.30
2018-08-12T06:37:21.043Z,16.30
2018-08-12T06:39:49.474Z,16.30
2018-08-12T06:42:17.923Z,16.30
2018-08-12T06:44:46.368Z,16.40
2018-08-12T06:47:14.868Z,16.60
2018-08-12T06:49:43.265Z,16.80
2018-08-12T06:52:11.693Z,17.10
2018-08-12T06:54:40.113Z,17.50
2018-08-12T06:57:08.575Z,17.80
2018-08-12T06:59:36.974Z,18.00
2018-08-12T07:02:05.411Z,18.30
2018-08-12T07:04:33.810Z,18.50
2018-08-12T07:07:02.244Z,18.80
2018-08-12T07:09:30.663Z,19.20
2018-08-12T07:11:59.183Z,19.30
2018-08-12T07:14:28.151Z,19.60
2018-08-12T07:16:56.583Z,20.00
2018-08-12T07:19:25.051Z,20.10
2018-08-12T07:21:53.526Z,20.40
2018-08-12T07:24:21.966Z,20.70
2018-08-12T07:26:50.403Z,20.90
2018-08-12T07:29:18.858Z,21.10
2018-08-12T07:31:47.354Z,21.20
2018-08-12T07:34:15.790Z,21.40
2018-08-12T07:36:44.252Z,21.60
2018-08-12T07:39:12.655Z,21.80
2018-08-12T07:41:41.107Z,21.90
2018-08-12T07:44:09.522Z,22.00
2018-08-12T07:46:37.991Z,22.20
2018-08-12T07:49:06.455Z,22.30
2018-08-12T07:51:34.886Z,22.30
2018-08-12T07:54:03.339Z,22.50
2018-08-12T07:56:31.803Z,22.70
2018-08-12T07:59:00.246Z,23.00
2018-08-12T08:01:28.659Z,23.20
2018-08-12T08:03:57.238Z,23.50
2018-08-12T08:06:25.780Z,23.50
2018-08-12T08:08:54.249Z,23.60
2018-08-12T08:11:22.723Z,23.70
2018-08-12T08:13:51.191Z,23.80
2018-08-12T08:16:20.851Z,23.90
2018-08-12T08:18:49.354Z,23.90
2018-08-12T08:21:17.843Z,24.00
2018-08-12T08:23:46.316Z,24.20
2018-08-12T08:26:14.741Z,24.10
2018-08-12T08:28:43.168Z,24.10
2018-08-12T08:31:11.697Z,24.20
2018-08-12T08:33:40.127Z,24.10
2018-08-12T08:36:08.575Z,23.90
2018-08-12T08:38:37.067Z,24.00
2018-08-12T08:41:05.661Z,23.90
2018-08-12T08:43:34.126Z,24.10
2018-08-12T08:46:02.565Z,24.40
2018-08-12T08:48:30.895Z,24.40
2018-08-12T08:50:59.270Z,24.20
2018-08-12T08:53:27.698Z,24.40
2018-08-12T08:55:56.254Z,24.60
2018-08-12T08:58:24.505Z,24.70
2018-08-12T09:00:52.847Z,24.70
2018-08-12T09:03:21.237Z,24.90
2018-08-12T09:05:49.594Z,25.10
2018-08-12T09:08:18.099Z,25.20
2018-08-12T09:10:46.336Z,25.30
2018-08-12T09:13:14.695Z,25.40
2018-08-12T09:15:43.171Z,25.20
2018-08-12T09:18:11.654Z,25.30
2018-08-12T09:20:39.955Z,25.40
2018-08-12T09:23:08.322Z,25.50
2018-08-12T09:25:37.192Z,25.80
2018-08-12T09:28:06.580Z,25.60
2018-08-12T09:30:35.043Z,25.50
2018-08-12T09:33:03.525Z,25.60
2018-08-12T09:35:32.004Z,25.80
2018-08-12T09:38:00.437Z,26.10
2018-08-12T09:40:29.300Z,26.00
2018-08-12T09:42:57.780Z,26.30
2018-08-12T09:45:26.327Z,26.10
2018-08-12T09:47:55.157Z,26.10
2018-08-12T09:50:23.500Z,26.20
2018-08-12T09:52:53.038Z,26.40
2018-08-12T09:55:21.752Z,26.40
2018-08-12T09:57:50.899Z,26.20
2018-08-12T10:00:28.746Z,26.10
2018-08-12T10:02:57.903Z,26.00
2018-08-12T10:05:26.303Z,26.10
2018-08-12T10:07:54.731Z,26.20
2018-08-12T10:10:23.082Z,26.00
2018-08-12T10:12:51.497Z,26.10
2018-08-12T10:15:19.894Z,26.20
2018-08-12T10:17:50.411Z,26.40
2018-08-12T10:20:18.958Z,26.60
2018-08-12T10:22:47.403Z,26.50
2018-08-12T10:25:15.911Z,26.60
2018-08-12T10:27:44.674Z,26.70
2018-08-12T10:30:14.135Z,26.40
2018-08-12T10:32:42.603Z,26.50
2018-08-12T10:35:13.729Z,26.50
2018-08-12T10:37:43.658Z,26.60
2018-08-12T10:40:16.858Z,26.70
2018-08-12T10:42:46.170Z,26.90
2018-08-12T10:45:14.739Z,27.00
2018-08-12T10:47:43.731Z,27.00
2018-08-12T10:50:14.577Z,27.10
2018-08-12T10:52:44.091Z,27.00
2018-08-12T10:55:13.670Z,27.10
2018-08-12T10:57:42.191Z,27.30
2018-08-12T11:00:12.643Z,27.30
2018-08-12T11:02:41.406Z,27.20
2018-08-12T11:05:09.916Z,27.00
2018-08-12T11:07:38.424Z,27.00
2018-08-12T11:10:07.997Z,26.90
2018-08-12T11:12:36.518Z,27.00
2018-08-12T11:15:05.892Z,26.90
2018-08-12T11:17:34.307Z,27.10
2018-08-12T11:20:02.759Z,27.10
2018-08-12T11:22:31.163Z,27.20
2018-08-12T11:24:59.647Z,27.30
2018-08-12T11:27:28.054Z,27.10
2018-08-12T11:29:56.536Z,27.30
2018-08-12T11:32:24.948Z,27.40
2018-08-12T11:34:53.475Z,27.50
2018-08-12T11:37:21.851Z,27.20
2018-08-12T11:39:50.330Z,27.40
2018-08-12T11:42:18.767Z,27.60
2018-08-12T11:44:47.252Z,27.60
2018-08-12T11:47:15.726Z,27.30
2018-08-12T11:49:44.159Z,27.20
2018-08-12T11:52:12.603Z,27.10
2018-08-12T11:54:41.125Z,27.20
2018-08-12T11:57:09.588Z,27.10
2018-08-12T11:59:38.107Z,27.20
2018-08-12T12:02:07.322Z,27.40
2018-08-12T12:04:35.745Z,27.50
2018-08-12T12:07:04.235Z,27.70
2018-08-12T12:09:32.758Z,27.70
2018-08-12T12:12:01.159Z,27.70
2018-08-12T12:14:29.600Z,27.90
2018-08-12T12:16:57.987Z,27.90
2018-08-12T12:19:26.463Z,27.90
2018-08-12T12:21:54.888Z,28.00
2018-08-12T12:24:23.327Z,28.20
2018-08-12T12:26:51.813Z,28.20
2018-08-12T12:29:20.239Z,28.10
2018-08-12T12:31:48.692Z,28.10
2018-08-12T12:34:17.164Z,27.90
2018-08-12T12:36:45.651Z,28.00
2018-08-12T12:39:14.134Z,28.20
2018-08-12T12:41:46.623Z,28.20
2018-08-12T12:44:15.043Z,28.40
2018-08-12T12:46:43.470Z,28.20
2018-08-12T12:49:11.960Z,28.20
2018-08-12T12:51:40.583Z,28.00
2018-08-12T12:54:09.047Z,28.10
2018-08-12T12:56:37.515Z,28.10
2018-08-12T12:59:06.340Z,27.90
2018-08-12T13:01:35.410Z,27.70
2018-08-12T13:04:04.559Z,27.70
2018-08-12T13:06:33.043Z,27.70
2018-08-12T13:09:01.479Z,27.90
2018-08-12T13:11:29.915Z,28.10
2018-08-12T13:13:58.355Z,28.40
2018-08-12T13:16:26.810Z,28.10
2018-08-12T13:18:55.265Z,28.10
2018-08-12T13:21:23.707Z,28.00
2018-08-12T13:23:52.190Z,28.00
2018-08-12T13:26:20.663Z,27.90
2018-08-12T13:28:49.095Z,27.90
2018-08-12T13:31:17.507Z,28.00
2018-08-12T13:33:45.923Z,28.10
2018-08-12T13:36:14.402Z,28.00
2018-08-12T13:38:42.814Z,27.90
2018-08-12T13:41:11.234Z,27.90
2018-08-12T13:43:39.826Z,27.80
2018-08-12T13:46:08.235Z,27.70
2018-08-12T13:48:36.700Z,27.80
2018-08-12T13:51:05.243Z,27.90
2018-08-12T13:53:33.691Z,27.90
2018-08-12T13:56:04.920Z,28.00
2018-08-12T13:58:33.367Z,28.10
2018-08-12T14:01:01.872Z,28.20
2018-08-12T14:03:30.327Z,28.30
2018-08-12T14:05:58.811Z,28.30
2018-08-12T14:08:27.243Z,28.20
2018-08-12T14:10:55.664Z,28.30
2018-08-12T14:13:24.182Z,28.40
2018-08-12T14:15:52.604Z,28.20
2018-08-12T14:18:21.148Z,28.20
2018-08-12T14:20:49.858Z,28.20
2018-08-12T14:23:18.402Z,28.30
2018-08-12T14:25:47.103Z,28.30
2018-08-12T14:28:16.360Z,28.50
2018-08-12T14:30:44.935Z,28.40
2018-08-12T14:33:13.441Z,28.40
2018-08-12T14:35:47.735Z,28.20
2018-08-12T14:38:16.198Z,28.20
2018-08-12T14:40:44.659Z,28.10
2018-08-12T14:43:13.144Z,28.20
2018-08-12T14:45:41.583Z,28.30
2018-08-12T14:48:10.478Z,28.40
2018-08-12T14:50:39.046Z,28.40
2018-08-12T14:53:07.655Z,28.50
2018-08-12T14:55:36.219Z,28.50
2018-08-12T14:58:04.868Z,28.40
2018-08-12T15:00:33.428Z,28.50
2018-08-12T15:03:02.417Z,28.50
2018-08-12T15:05:30.918Z,28.50
2018-08-12T15:07:59.484Z,28.40
2018-08-12T15:10:28.477Z,28.40
2018-08-12T15:12:56.988Z,28.40
2018-08-12T15:15:25.501Z,28.30
2018-08-12T15:17:54.051Z,28.40
2018-08-12T15:20:22.986Z,28.40
2018-08-12T15:22:51.596Z,28.40
2018-08-12T15:25:21.106Z,28.30
2018-08-12T15:27:50.550Z,28.40
2018-08-12T15:30:19.265Z,28.40
2018-08-12T15:32:48.637Z,28.40
2018-08-12T15:35:17.206Z,28.20
2018-08-12T15:37:46.356Z,28.20
2018-08-12T15:40:15.744Z,28.10
2018-08-12T15:42:50.996Z,28.10
2018-08-12T15:45:19.399Z,28.00
2018-08-12T15:47:48.106Z,28.00
2018-08-12T15:50:16.503Z,27.90
2018-08-12T15:52:45.938Z,27.80
2018-08-12T15:55:14.523Z,27.70
2018-08-12T15:57:42.923Z,27.70
2018-08-12T16:00:14.507Z,27.70
2018-08-12T16:02:43.554Z,27.70
2018-08-12T16:05:11.931Z,27.70
2018-08-12T16:07:40.507Z,27.60
2018-08-12T16:10:16.387Z,27.60
2018-08-12T16:12:45.477Z,27.70
2018-08-12T16:15:13.851Z,27.80
2018-08-12T16:17:42.587Z,27.80
2018-08-12T16:20:11.582Z,27.80
2018-08-12T16:22:40.023Z,27.80
2018-08-12T16:25:12.127Z,27.90
2018-08-12T16:27:41.018Z,27.80
2018-08-12T16:30:10.732Z,27.80
2018-08-12T16:32:40.975Z,27.70
2018-08-12T16:35:10.710Z,27.60
2018-08-12T16:37:39.672Z,27.70
2018-08-12T16:40:09.889Z,27.70
2018-08-12T16:42:38.431Z,27.60
2018-08-12T16:45:08.072Z,27.60
2018-08-12T16:47:36.584Z,27.70
2018-08-12T16:50:06.144Z,27.70
2018-08-12T16:52:34.906Z,27.70
2018-08-12T16:55:03.361Z,27.70
2018-08-12T16:57:31.904Z,27.70
2018-08-12T17:00:00.733Z,27.70
2018-08-12T17:02:29.716Z,27.60
2018-08-12T17:04:58.444Z,27.60
2018-08-12T17:07:26.810Z,27.70
2018-08-12T17:09:55.194Z,27.70
2018-08-12T17:12:23.525Z,27.60
2018-08-12T17:14:51.926Z,27.60
2018-08-12T17:17:20.382Z,27.50
2018-08-12T17:19:48.763Z,27.50
2018-08-12T17:22:17.272Z,27.60
2018-08-12T17:24:45.889Z,27.50
2018-08-12T17:27:14.502Z,27.50
2018-08-12T17:29:42.959Z,27.40
2018-08-12T17:32:11.614Z,27.40
2018-08-12T17:34:39.991Z,27.40
2018-08-12T17:37:08.329Z,27.50
2018-08-12T17:39:36.804Z,27.50
2018-08-12T17:42:05.163Z,27.40
2018-08-12T17:44:33.522Z,27.40
2018-08-12T17:47:01.971Z,27.30
2018-08-12T17:49:30.426Z,27.30
2018-08-12T17:51:58.891Z,27.20
2018-08-12T17:54:27.312Z,27.10
2018-08-12T17:56:55.778Z,27.00
2018-08-12T17:59:24.274Z,26.90
2018-08-12T18:01:52.867Z,26.90
2018-08-12T18:04:21.314Z,26.90
2018-08-12T18:06:49.751Z,26.80
2018-08-12T18:09:18.240Z,26.60
2018-08-12T18:11:46.691Z,26.50
2018-08-12T18:14:15.286Z,26.40
2018-08-12T18:16:43.755Z,26.30
2018-08-12T18:19:12.176Z,26.20
2018-08-12T18:21:40.583Z,26.20
2018-08-12T18:24:09.087Z,26.20
2018-08-12T18:26:37.528Z,26.00
2018-08-12T18:29:06.168Z,26.00
2018-08-12T18:31:35.240Z,25.90
2018-08-12T18:34:03.736Z,25.70
2018-08-12T18:36:32.429Z,25.70
2018-08-12T18:39:01.190Z,25.70
2018-08-12T18:41:29.638Z,25.60
2018-08-12T18:43:58.094Z,25.60
2018-08-12T18:46:26.548Z,25.60
2018-08-12T18:48:54.983Z,25.50
2018-08-12T18:51:23.378Z,25.40
2018-08-12T18:53:51.882Z,25.30
2018-08-12T18:56:20.304Z,25.10
2018-08-12T18:58:48.735Z,24.90
2018-08-12T19:01:17.295Z,24.60
2018-08-12T19:03:45.651Z,24.50
2018-08-12T19:06:14.471Z,24.50
2018-08-12T19:08:43.208Z,24.50
2018-08-12T19:11:11.636Z,24.40
2018-08-12T19:13:40.099Z,24.30
2018-08-12T19:16:08.711Z,24.30
2018-08-12T19:18:37.213Z,24.20
2018-08-12T19:21:06.034Z,24.10
2018-08-12T19:23:34.749Z,24.00
2018-08-12T19:26:03.203Z,23.90
2018-08-12T19:28:31.632Z,23.70
2018-08-12T19:31:00.283Z,23.70
2018-08-12T19:33:28.715Z,23.50
2018-08-12T19:35:57.114Z,23.30
2018-08-12T19:38:25.550Z,23.20
2018-08-12T19:40:53.971Z,23.20
2018-08-12T19:43:22.423Z,23.00
2018-08-12T19:45:50.883Z,22.90
2018-08-12T19:48:19.367Z,22.70
2018-08-12T19:50:54.471Z,22.50
2018-08-12T19:53:22.945Z,22.40
2018-08-12T19:55:51.365Z,22.40
2018-08-12T19:58:19.791Z,22.40
2018-08-12T20:00:48.355Z,22.20
2018-08-12T20:03:16.775Z,22.00
2018-08-12T20:05:45.248Z,22.00
2018-08-12T20:08:13.618Z,21.90
2018-08-12T20:10:42.071Z,21.90
2018-08-12T20:13:10.560Z,21.90
2018-08-12T20:15:39.073Z,21.70
2018-08-12T20:18:07.510Z,21.70
2018-08-12T20:20:35.950Z,21.60
2018-08-12T20:23:04.392Z,21.60
2018-08-12T20:25:32.831Z,21.60
2018-08-12T20:28:01.375Z,21.50
2018-08-12T20:30:29.948Z,21.40
2018-08-12T20:32:58.458Z,21.30
2018-08-12T20:35:26.985Z,21.10
2018-08-12T20:37:55.426Z,21.10
2018-08-12T20:40:23.954Z,21.00
2018-08-12T20:42:52.886Z,21.00
2018-08-12T20:45:21.370Z,20.90
2018-08-12T20:47:50.270Z,20.80
2018-08-12T20:50:18.630Z,20.80
2018-08-12T20:52:46.989Z,20.80
2018-08-12T20:57:53.391Z,20.60
2018-08-12T21:00:21.842Z,20.50
2018-08-12T21:02:50.600Z,20.50
2018-08-12T21:05:19.180Z,20.50
2018-08-12T21:07:47.518Z,20.40
2018-08-12T21:10:15.883Z,20.40
2018-08-12T21:12:44.249Z,20.40
2018-08-12T21:15:12.646Z,20.30
2018-08-12T21:17:41.006Z,20.30
2018-08-12T21:20:09.411Z,20.20
2018-08-12T21:22:38.011Z,20.10
2018-08-12T21:25:06.641Z,20.10
2018-08-12T21:27:35.126Z,20.10
2018-08-12T21:30:03.661Z,20.10
2018-08-12T21:32:31.983Z,20.00
2018-08-12T21:35:07.164Z,20.00
2018-08-12T21:37:35.496Z,20.00
2018-08-12T21:40:04.192Z,19.90
2018-08-12T21:42:32.552Z,19.80
2018-08-12T21:45:00.934Z,19.80
2018-08-12T21:47:29.391Z,19.80
2018-08-12T21:49:57.823Z,19.80
2018-08-12T21:52:26.230Z,19.70
2018-08-12T21:54:54.663Z,19.70
2018-08-12T21:57:23.251Z,19.70
2018-08-12T21:59:51.666Z,19.60
2018-08-12T22:02:20.119Z,19.60
2018-08-12T22:04:48.611Z,19.60
2018-08-12T22:07:17.031Z,19.60
2018-08-12T22:09:45.491Z,19.50
2018-08-12T22:12:13.931Z,19.50
2018-08-12T22:14:42.428Z,19.40
2018-08-12T22:17:10.871Z,19.40
2018-08-12T22:19:40.301Z,19.40
2018-08-12T22:22:08.800Z,19.30
2018-08-12T22:24:37.451Z,19.20
2018-08-12T22:27:06.013Z,19.20
2018-08-12T22:29:34.575Z,19.20
2018-08-12T22:32:03.062Z,19.10
2018-08-12T22:34:31.503Z,19.10
2018-08-12T22:36:59.923Z,19.00
2018-08-12T22:39:28.327Z,19.00
2018-08-12T22:41:56.806Z,18.90
2018-08-12T22:44:25.423Z,18.90
2018-08-12T22:46:53.799Z,18.90
2018-08-12T22:49:22.171Z,18.90
2018-08-12T22:51:50.519Z,18.90
2018-08-12T22:54:18.981Z,18.90
2018-08-12T22:56:47.591Z,18.80
2018-08-12T22:59:15.943Z,18.70
2018-08-12T23:01:44.331Z,18.70
2018-08-12T23:04:12.702Z,18.70
2018-08-12T23:06:41.124Z,18.80
2018-08-12T23:09:10.168Z,18.70
2018-08-12T23:11:38.798Z,18.70
2018-08-12T23:14:07.178Z,18.80
2018-08-12T23:16:47.074Z,18.90
2018-08-12T23:19:15.402Z,18.90
2018-08-12T23:21:43.762Z,19.00
2018-08-12T23:24:12.130Z,19.10
2018-08-12T23:26:40.483Z,19.10
2018-08-12T23:29:08.851Z,19.20
2018-08-12T23:31:37.194Z,19.20
2018-08-12T23:34:05.536Z,19.30
2018-08-12T23:36:33.883Z,19.30
2018-08-12T23:39:02.278Z,19.30
2018-08-12T23:41:30.672Z,19.20
2018-08-12T23:43:59.007Z,19.20
2018-08-12T23:46:27.480Z,19.20
2018-08-12T23:48:55.893Z,19.10
2018-08-12T23:51:24.307Z,19.10
2018-08-12T23:53:52.718Z,19.20
2018-08-12T23:56:21.138Z,19.10
2018-08-12T23:58:49.594Z,19.20
